Time;durP1;ratioP1;P1;durP2;ratioP2;P2;SDS_P1;SDS_P2;PMS_P1;PMS_P2;Temp;Humidity;BMP_temperature;BMP_pressure;BME280_temperature;BME280_humidity;BME280_pressure;Samples;Min_cycle;Max_cycle;Signal;HPM_P1;HPM_P2
2022/04/17 00:00:13;;;;;;;0.70;0.70;;;5.90;99.90;;;;;;5239239;28;20029;-76
2022/04/17 00:02:49;;;;;;;;;;;5.80;99.90;;;;;;5238554;28;20597;-78
2022/04/17 00:05:22;;;;;;;0.70;0.70;;;5.80;99.90;;;;;;5242889;28;19920;-77
2022/04/17 00:07:56;;;;;;;1.02;1.02;;;5.80;99.90;;;;;;5243325;28;20039;-79
2022/04/17 00:10:32;;;;;;;0.85;0.85;;;5.70;99.90;;;;;;5238624;28;20042;-76
2022/04/17 00:13:04;;;;;;;0.57;0.57;;;5.60;99.90;;;;;;5232126;28;20032;-79
2022/04/17 00:15:37;;;;;;;0.60;0.60;;;5.50;99.90;;;;;;5227113;28;20033;-78
2022/04/17 00:18:11;;;;;;;0.77;0.77;;;5.40;99.90;;;;;;5247908;28;20020;-78
2022/04/17 00:20:42;;;;;;;1.00;1.00;;;5.40;99.90;;;;;;5247185;28;20020;-78
2022/04/17 00:23:15;;;;;;;0.50;0.50;;;5.30;99.90;;;;;;5230589;28;20217;-77
2022/04/17 00:25:46;;;;;;;0.75;0.75;;;5.30;99.90;;;;;;5239533;28;20038;-77
2022/04/17 00:28:18;;;;;;;0.38;0.38;;;5.20;99.90;;;;;;5246714;28;20033;-77
2022/04/17 00:30:50;;;;;;;0.40;0.40;;;5.20;99.90;;;;;;5241603;28;20028;-78
2022/04/17 00:33:21;;;;;;;0.40;0.40;;;5.20;99.90;;;;;;5234826;28;20220;-78
2022/04/17 00:35:54;;;;;;;0.30;0.30;;;5.20;99.90;;;;;;5240163;28;20240;-78
2022/04/17 00:38:25;;;;;;;0.70;0.70;;;5.20;99.90;;;;;;5244128;28;20035;-76
2022/04/17 00:40:56;;;;;;;0.75;0.75;;;5.10;99.90;;;;;;5245157;28;20036;-74
2022/04/17 00:43:33;;;;;;;0.50;0.50;;;5.00;99.90;;;;;;5240661;28;20036;-79
2022/04/17 00:46:07;;;;;;;0.73;0.73;;;4.90;99.90;;;;;;5251441;28;20036;-78
2022/04/17 00:48:39;;;;;;;0.80;0.80;;;4.90;99.90;;;;;;5233101;28;20040;-77
2022/04/17 00:51:14;;;;;;;0.63;0.63;;;4.90;99.90;;;;;;5240270;28;20040;-79
2022/04/17 00:53:47;;;;;;;0.60;0.60;;;4.90;99.90;;;;;;5246300;28;20036;-80
2022/04/17 00:56:22;;;;;;;0.70;0.70;;;4.90;99.90;;;;;;5238556;28;20032;-78
2022/04/17 00:58:54;;;;;;;0.60;0.60;;;4.80;99.90;;;;;;5239045;28;20048;-80
2022/04/17 01:01:34;;;;;;;0.70;0.70;;;4.80;99.90;;;;;;5235259;28;20025;-76
2022/04/17 01:04:06;;;;;;;0.70;0.70;;;4.70;99.90;;;;;;5234891;28;20017;-76
2022/04/17 01:06:40;;;;;;;0.43;0.43;;;4.70;99.90;;;;;;5212833;28;20049;-78
2022/04/17 01:09:15;;;;;;;10.55;2.30;;;4.60;99.90;;;;;;5243753;28;20039;-77
2022/04/17 01:11:50;;;;;;;0.52;0.52;;;4.60;99.90;;;;;;5232562;28;20027;-78
2022/04/17 01:14:22;;;;;;;0.50;0.50;;;4.60;99.90;;;;;;5228461;28;20029;-77
2022/04/17 01:16:55;;;;;;;0.80;0.80;;;4.50;99.90;;;;;;5239985;28;20029;-78
2022/04/17 01:19:37;;;;;;;1.05;0.90;;;4.60;99.90;;;;;;5249280;28;20020;-78
2022/04/17 01:22:15;;;;;;;0.47;0.47;;;4.60;99.90;;;;;;5243221;28;20034;-77
2022/04/17 01:27:38;;;;;;;0.57;0.57;;;4.70;99.90;;;;;;5247994;28;20040;-77
2022/04/17 01:30:12;;;;;;;0.60;0.60;;;4.70;99.90;;;;;;5239317;28;20055;-78
2022/04/17 01:32:48;;;;;;;0.60;0.60;;;4.70;99.90;;;;;;5238062;28;20517;-79
2022/04/17 01:35:22;;;;;;;0.60;0.60;;;4.80;99.90;;;;;;5236435;28;20039;-78
2022/04/17 01:37:53;;;;;;;0.70;0.70;;;4.70;99.90;;;;;;5244700;28;20032;-78
2022/04/17 01:40:27;;;;;;;0.57;0.57;;;4.70;99.90;;;;;;5245391;28;20034;-77
2022/04/17 01:43:06;;;;;;;0.60;0.60;;;4.60;99.90;;;;;;5237420;28;20439;-79
2022/04/17 01:45:37;;;;;;;0.50;0.50;;;4.60;99.90;;;;;;5237206;28;20020;-77
2022/04/17 01:48:11;;;;;;;1.35;1.25;;;4.60;99.90;;;;;;5245734;28;20358;-77
2022/04/17 01:50:47;;;;;;;0.60;0.60;;;4.50;99.90;;;;;;5233847;28;20049;-78
2022/04/17 01:53:21;;;;;;;0.55;0.55;;;4.40;99.90;;;;;;5245316;28;20042;-78
2022/04/17 01:55:55;;;;;;;0.88;0.88;;;4.40;99.90;;;;;;5232448;28;20028;-79
2022/04/17 01:58:31;;;;;;;0.50;0.50;;;4.40;99.90;;;;;;5236361;28;20027;-77
2022/04/17 02:01:07;;;;;;;0.60;0.60;;;4.30;99.90;;;;;;5235448;28;20030;-77
2022/04/17 02:03:38;;;;;;;0.35;0.35;;;4.30;99.90;;;;;;5240987;28;20081;-78
2022/04/17 02:06:11;;;;;;;0.60;0.60;;;4.30;99.90;;;;;;5246877;28;20047;-79
2022/04/17 02:08:44;;;;;;;0.50;0.50;;;4.30;99.90;;;;;;5240662;28;20075;-78
2022/04/17 02:11:15;;;;;;;0.60;0.60;;;4.30;99.90;;;;;;5245374;28;20532;-79
2022/04/17 02:13:51;;;;;;;0.50;0.50;;;4.30;99.90;;;;;;5242191;28;20099;-77
2022/04/17 02:16:24;;;;;;;0.50;0.50;;;4.20;99.90;;;;;;5233128;28;20016;-78
2022/04/17 02:19:00;;;;;;;1.00;1.00;;;4.20;99.90;;;;;;5231752;28;20039;-79
2022/04/17 02:21:31;;;;;;;0.60;0.60;;;4.20;99.90;;;;;;5234195;28;20579;-78
2022/04/17 02:24:03;;;;;;;0.63;0.63;;;4.20;99.90;;;;;;5234806;28;20036;-79
2022/04/17 02:26:37;;;;;;;0.50;0.50;;;4.20;99.90;;;;;;5241403;28;20040;-78
2022/04/17 02:29:10;;;;;;;0.50;0.50;;;4.30;99.90;;;;;;5233307;28;20025;-79
2022/04/17 02:31:41;;;;;;;0.43;0.43;;;4.30;99.90;;;;;;5229115;28;20036;-79
2022/04/17 02:34:15;;;;;;;0.40;0.40;;;4.30;99.90;;;;;;5234317;28;20488;-78
2022/04/17 02:36:46;;;;;;;0.50;0.50;;;4.30;99.90;;;;;;5236051;28;20021;-78
2022/04/17 02:39:18;;;;;;;0.50;0.50;;;4.30;99.90;;;;;;5230641;28;20038;-79
2022/04/17 02:41:52;;;;;;;0.30;0.30;;;4.20;99.90;;;;;;5240892;28;21233;-79
2022/04/17 02:44:26;;;;;;;0.85;0.85;;;4.10;99.90;;;;;;5240267;28;20027;-79
2022/04/17 02:49:52;;;;;;;0.60;0.60;;;4.10;99.90;;;;;;5240762;28;20025;-77
2022/04/17 02:52:25;;;;;;;0.60;0.60;;;4.20;99.90;;;;;;5246760;28;20581;-78
2022/04/17 02:54:56;;;;;;;0.73;0.73;;;4.10;99.90;;;;;;5256908;28;20023;-78
2022/04/17 02:57:30;;;;;;;0.52;0.52;;;4.10;99.90;;;;;;5265746;28;20432;-77
2022/04/17 03:00:04;;;;;;;0.60;0.60;;;4.00;99.90;;;;;;5264612;28;20101;-78
2022/04/17 03:05:39;;;;;;;0.75;0.75;;;4.10;99.90;;;;;;5266618;28;20058;-78
2022/04/17 03:08:18;;;;;;;0.70;0.70;;;4.00;99.90;;;;;;5262981;28;20024;-78
2022/04/17 03:10:51;;;;;;;0.70;0.70;;;4.00;99.90;;;;;;5279553;28;20042;-78
2022/04/17 03:13:24;;;;;;;0.60;0.60;;;4.00;99.90;;;;;;5268080;28;20038;-78
2022/04/17 03:15:56;;;;;;;0.50;0.50;;;4.00;99.90;;;;;;5265628;28;20038;-79
2022/04/17 03:18:27;;;;;;;0.80;0.80;;;4.00;99.90;;;;;;5261558;28;20028;-77
2022/04/17 03:21:01;;;;;;;0.60;0.60;;;4.00;99.90;;;;;;5242834;28;20320;-78
2022/04/17 03:23:32;;;;;;;0.70;0.70;;;4.00;99.90;;;;;;5238245;28;20032;-79
2022/04/17 03:26:06;;;;;;;0.80;0.80;;;4.10;99.90;;;;;;5262437;28;20023;-78
2022/04/17 03:28:39;;;;;;;0.60;0.60;;;4.00;99.90;;;;;;5241264;28;20035;-77
2022/04/17 03:31:11;;;;;;;0.73;0.73;;;3.90;99.90;;;;;;5262559;28;20034;-78
2022/04/17 03:33:42;;;;;;;0.60;0.60;;;3.80;99.90;;;;;;5226231;28;20028;-79
2022/04/17 03:36:16;;;;;;;0.45;0.45;;;3.80;99.90;;;;;;5247559;28;21012;-76
2022/04/17 03:38:47;;;;;;;0.95;0.95;;;3.80;99.90;;;;;;5259041;28;20309;-77
2022/04/17 03:41:22;;;;;;;0.70;0.70;;;3.90;99.90;;;;;;5240651;28;20040;-78
2022/04/17 03:43:53;;;;;;;0.52;0.52;;;3.80;99.90;;;;;;5214000;28;20040;-78
2022/04/17 03:46:27;;;;;;;0.30;0.30;;;3.80;99.90;;;;;;5258107;28;20038;-79
2022/04/17 03:48:59;;;;;;;0.60;0.60;;;3.70;99.90;;;;;;5235503;28;20025;-78
2022/04/17 03:51:30;;;;;;;0.50;0.50;;;3.70;99.90;;;;;;5243457;28;20046;-77
2022/04/17 03:54:04;;;;;;;0.60;0.60;;;3.60;99.90;;;;;;5264974;28;20024;-76
2022/04/17 03:56:35;;;;;;;0.52;0.52;;;3.60;99.90;;;;;;5264323;28;20066;-77
2022/04/17 03:59:07;;;;;;;0.73;0.73;;;3.60;99.90;;;;;;5249607;28;20037;-78
2022/04/17 04:01:38;;;;;;;0.35;0.35;;;3.60;99.90;;;;;;5266671;28;20318;-77
2022/04/17 04:04:09;;;;;;;1.02;1.02;;;3.50;99.90;;;;;;5268023;28;20016;-78
2022/04/17 04:06:41;;;;;;;0.40;0.40;;;3.50;99.90;;;;;;5240062;28;20055;-78
2022/04/17 04:09:14;;;;;;;0.40;0.40;;;3.50;99.90;;;;;;5249735;28;20040;-76
2022/04/17 04:11:47;;;;;;;0.40;0.40;;;3.50;99.90;;;;;;5250881;28;20028;-77
2022/04/17 04:14:18;;;;;;;0.60;0.60;;;3.40;99.90;;;;;;5250249;28;20042;-79
2022/04/17 04:16:49;;;;;;;0.50;0.50;;;3.40;99.90;;;;;;5267740;28;20234;-79
2022/04/17 04:19:21;;;;;;;0.47;0.47;;;3.40;99.90;;;;;;5269580;28;20431;-77
2022/04/17 04:21:54;;;;;;;0.52;0.52;;;3.40;99.90;;;;;;5269970;28;20374;-77
2022/04/17 04:24:28;;;;;;;0.40;0.40;;;3.40;99.90;;;;;;5235483;28;20038;-78
2022/04/17 04:29:52;;;;;;;0.85;0.85;;;3.60;99.90;;;;;;5268155;28;20034;-78
2022/04/17 04:32:23;;;;;;;0.50;0.50;;;3.60;99.90;;;;;;5252047;28;20040;-78
2022/04/17 04:35:01;;;;;;;0.60;0.60;;;3.70;99.90;;;;;;5244330;28;20028;-78
2022/04/17 04:37:35;;;;;;;0.45;0.45;;;3.80;99.90;;;;;;5260844;28;20024;-78
2022/04/17 04:40:07;;;;;;;;;;;3.80;99.90;;;;;;5270575;28;20036;-78
2022/04/17 04:42:41;;;;;;;0.60;0.60;;;3.80;99.90;;;;;;5268463;28;19910;-79
2022/04/17 04:48:04;;;;;;;0.40;0.40;;;4.00;99.90;;;;;;5268664;28;20020;-78
2022/04/17 04:50:38;;;;;;;0.50;0.50;;;4.00;99.90;;;;;;5267910;28;20032;-78
2022/04/17 04:53:10;;;;;;;0.40;0.40;;;4.00;99.90;;;;;;5251278;28;20570;-79
2022/04/17 04:55:41;;;;;;;0.45;0.45;;;4.10;99.90;;;;;;5268092;28;20024;-77
2022/04/17 04:58:18;;;;;;;0.45;0.45;;;4.20;99.90;;;;;;5268603;28;20023;-77
2022/04/17 05:00:51;;;;;;;0.50;0.50;;;4.30;99.90;;;;;;5267386;28;20023;-77
2022/04/17 05:03:23;;;;;;;0.50;0.50;;;4.40;99.90;;;;;;5244235;28;20032;-77
2022/04/17 05:05:54;;;;;;;1.05;1.05;;;4.40;99.90;;;;;;5260606;28;20044;-77
2022/04/17 05:08:30;;;;;;;0.70;0.70;;;4.50;99.90;;;;;;5250195;28;20050;-77
2022/04/17 05:11:02;;;;;;;0.70;0.70;;;4.60;99.90;;;;;;5250706;28;20572;-79
2022/04/17 05:13:38;;;;;;;0.60;0.60;;;4.70;99.90;;;;;;5269153;28;20044;-77
2022/04/17 05:16:13;;;;;;;0.70;0.70;;;4.90;99.90;;;;;;5265864;28;20020;-78
2022/04/17 05:18:49;;;;;;;0.70;0.70;;;4.90;99.90;;;;;;5260105;28;20032;-78
2022/04/17 05:21:31;;;;;;;0.45;0.45;;;5.00;99.90;;;;;;5262108;28;20020;-77
2022/04/17 05:24:08;;;;;;;0.63;0.63;;;4.90;99.90;;;;;;5259725;28;20032;-78
2022/04/17 05:26:39;;;;;;;0.63;0.63;;;5.00;99.90;;;;;;5261448;28;20333;-77
2022/04/17 05:29:10;;;;;;;0.52;0.52;;;4.90;99.90;;;;;;5266042;28;20250;-78
2022/04/17 05:31:41;;;;;;;0.47;0.47;;;5.00;99.90;;;;;;5256006;28;20026;-78
2022/04/17 05:34:13;;;;;;;0.40;0.40;;;5.00;99.90;;;;;;5257936;28;20233;-78
2022/04/17 05:36:44;;;;;;;0.60;0.60;;;4.90;99.90;;;;;;5239187;28;20055;-76
2022/04/17 05:39:15;;;;;;;0.73;0.73;;;5.00;99.90;;;;;;5253375;28;20032;-78
2022/04/17 05:41:47;;;;;;;0.60;0.60;;;5.10;99.90;;;;;;5251970;28;20033;-77
2022/04/17 05:44:21;;;;;;;0.40;0.40;;;5.10;99.90;;;;;;5255005;28;20233;-79
2022/04/17 05:46:54;;;;;;;0.50;0.50;;;5.20;99.90;;;;;;5259455;28;20023;-78
2022/04/17 05:49:25;;;;;;;0.88;0.88;;;5.30;99.90;;;;;;5258380;28;20030;-79
2022/04/17 05:51:57;;;;;;;0.60;0.60;;;5.40;99.90;;;;;;5260233;28;20341;-79
2022/04/17 05:54:32;;;;;;;0.55;0.55;;;5.40;99.90;;;;;;5258951;28;20050;-78
2022/04/17 05:57:06;;;;;;;0.50;0.50;;;5.50;99.90;;;;;;5257630;28;20038;-78
2022/04/17 05:59:37;;;;;;;0.50;0.50;;;5.60;99.90;;;;;;5256950;28;20346;-78
2022/04/17 06:02:15;;;;;;;0.40;0.40;;;5.60;99.90;;;;;;5265233;28;20249;-78
2022/04/17 06:04:52;;;;;;;0.55;0.55;;;5.80;99.90;;;;;;5249283;28;20325;-77
2022/04/17 06:07:27;;;;;;;0.40;0.40;;;6.00;99.90;;;;;;5259032;28;20242;-79
2022/04/17 06:10:12;;;;;;;0.60;0.60;;;6.00;99.90;;;;;;5252043;28;20036;-79
2022/04/17 06:12:46;;;;;;;1.23;1.05;;;5.80;99.90;;;;;;5250975;28;20032;-78
2022/04/17 06:15:18;;;;;;;0.40;0.40;;;5.90;99.90;;;;;;5261796;28;20024;-77
2022/04/17 06:17:58;;;;;;;0.57;0.57;;;6.00;99.90;;;;;;5262731;28;20034;-77
2022/04/17 06:20:29;;;;;;;0.50;0.50;;;6.20;99.90;;;;;;5254504;28;20024;-78
2022/04/17 06:23:00;;;;;;;0.57;0.57;;;6.30;99.90;;;;;;5251333;28;20050;-78
2022/04/17 06:25:31;;;;;;;0.63;0.63;;;6.30;99.90;;;;;;5257659;28;20297;-77
2022/04/17 06:28:03;;;;;;;0.35;0.35;;;6.30;99.90;;;;;;5266731;28;20255;-77
2022/04/17 06:30:34;;;;;;;0.80;0.80;;;6.30;99.90;;;;;;5262371;28;20032;-78
2022/04/17 06:33:08;;;;;;;0.70;0.70;;;6.40;99.90;;;;;;5261809;28;20325;-76
2022/04/17 06:35:41;;;;;;;0.73;0.73;;;6.50;99.90;;;;;;5262373;28;20038;-77
2022/04/17 06:38:15;;;;;;;0.80;0.80;;;6.70;99.90;;;;;;5260609;28;20024;-77
2022/04/17 06:40:49;;;;;;;0.80;0.80;;;6.60;99.90;;;;;;5262700;28;20245;-78
2022/04/17 06:43:22;;;;;;;0.60;0.60;;;6.60;99.90;;;;;;5259963;28;20313;-78
2022/04/17 06:45:53;;;;;;;0.30;0.30;;;6.90;99.90;;;;;;5256064;28;20022;-79
2022/04/17 06:48:27;;;;;;;0.50;0.50;;;6.70;99.90;;;;;;5258785;28;20028;-78
2022/04/17 06:50:58;;;;;;;0.52;0.52;;;6.70;99.90;;;;;;5261541;28;20236;-76
2022/04/17 06:53:29;;;;;;;0.82;0.82;;;6.90;99.90;;;;;;5260515;28;20036;-78
2022/04/17 06:56:00;;;;;;;0.55;0.55;;;7.20;99.90;;;;;;5261441;28;20030;-77
2022/04/17 06:58:32;;;;;;;0.57;0.57;;;7.20;99.90;;;;;;5257489;28;20026;-77
2022/04/17 07:01:05;;;;;;;1.35;1.10;;;7.50;99.90;;;;;;5253730;28;20314;-78
2022/04/17 07:03:36;;;;;;;0.70;0.70;;;7.50;99.90;;;;;;5241914;28;20060;-77
2022/04/17 07:06:08;;;;;;;0.65;0.65;;;7.70;99.90;;;;;;5231972;28;20361;-77
2022/04/17 07:08:39;;;;;;;0.73;0.73;;;7.90;99.90;;;;;;5263006;28;20363;-77
2022/04/17 07:11:17;;;;;;;0.52;0.52;;;7.80;99.90;;;;;;5245620;28;20207;-77
2022/04/17 07:13:48;;;;;;;1.70;1.25;;;8.40;99.90;;;;;;5238543;28;20032;-77
2022/04/17 07:16:19;;;;;;;0.55;0.55;;;8.00;99.90;;;;;;5241727;28;20046;-77
2022/04/17 07:18:53;;;;;;;0.50;0.50;;;8.00;99.90;;;;;;5258512;28;20046;-75
2022/04/17 07:21:28;;;;;;;0.50;0.50;;;8.20;99.90;;;;;;5243309;28;20440;-76
2022/04/17 07:24:02;;;;;;;0.60;0.60;;;8.70;99.90;;;;;;5260765;28;20285;-78
2022/04/17 07:26:34;;;;;;;0.60;0.60;;;8.50;99.90;;;;;;5263655;28;20039;-78
2022/04/17 07:29:10;;;;;;;0.68;0.68;;;8.60;99.90;;;;;;5260894;28;20038;-78
2022/04/17 07:31:43;;;;;;;0.60;0.60;;;8.60;99.90;;;;;;5260465;28;20023;-78
2022/04/17 07:34:17;;;;;;;0.77;0.77;;;8.40;99.90;;;;;;5263642;28;20354;-79
2022/04/17 07:36:52;;;;;;;0.68;0.68;;;8.30;99.90;;;;;;5270824;28;20032;-78
2022/04/17 07:39:23;;;;;;;1.05;1.05;;;8.50;99.90;;;;;;5264925;28;20028;-80
2022/04/17 07:41:55;;;;;;;0.70;0.70;;;9.10;99.90;;;;;;5233914;28;20035;-78
2022/04/17 07:44:29;;;;;;;1.00;1.00;;;9.00;99.90;;;;;;5266645;28;20505;-78
2022/04/17 07:47:03;;;;;;;0.60;0.60;;;8.70;99.90;;;;;;5234295;28;20218;-77
2022/04/17 07:49:36;;;;;;;0.45;0.45;;;8.40;99.90;;;;;;5261323;28;20034;-77
2022/04/17 07:52:10;;;;;;;0.40;0.40;;;9.30;99.90;;;;;;5266729;28;20062;-77
2022/04/17 07:54:42;;;;;;;0.88;0.88;;;9.50;99.90;;;;;;5264656;28;20035;-79
2022/04/17 07:57:14;;;;;;;0.70;0.70;;;9.80;99.90;;;;;;5268885;28;20039;-79
2022/04/17 07:59:45;;;;;;;0.70;0.70;;;9.30;99.90;;;;;;5243949;28;20024;-77
2022/04/17 08:02:27;;;;;;;1.45;1.38;;;8.90;99.90;;;;;;5269537;28;20019;-78
2022/04/17 08:05:01;;;;;;;1.05;1.05;;;8.90;99.90;;;;;;5255552;28;20052;-78
2022/04/17 08:07:32;;;;;;;0.70;0.70;;;8.80;99.90;;;;;;5266945;28;20379;-77
2022/04/17 08:10:03;;;;;;;0.50;0.50;;;8.70;99.90;;;;;;5265562;28;20026;-76
2022/04/17 08:12:37;;;;;;;0.70;0.70;;;9.20;99.90;;;;;;5242265;28;20039;-79
2022/04/17 08:15:08;;;;;;;1.38;1.33;;;10.30;99.90;;;;;;5246132;28;20470;-78
2022/04/17 08:17:42;;;;;;;0.82;0.82;;;10.00;99.90;;;;;;5240663;28;20063;-78
2022/04/17 08:20:13;;;;;;;0.70;0.70;;;9.50;99.90;;;;;;5261592;28;20024;-78
2022/04/17 08:22:47;;;;;;;0.52;0.52;;;9.60;99.90;;;;;;5262014;28;20372;-77
2022/04/17 08:25:19;;;;;;;0.63;0.63;;;9.20;99.90;;;;;;5268619;28;20020;-76
2022/04/17 08:27:58;;;;;;;0.80;0.80;;;9.00;99.90;;;;;;5252555;28;20040;-78
2022/04/17 08:30:33;;;;;;;0.82;0.82;;;9.40;99.90;;;;;;5274011;28;20026;-77
2022/04/17 08:33:10;;;;;;;0.70;0.70;;;9.90;99.90;;;;;;5274677;28;20327;-78
2022/04/17 08:35:41;;;;;;;1.38;1.27;;;10.00;99.90;;;;;;5262172;28;20042;-77
2022/04/17 08:38:21;;;;;;;0.88;0.88;;;10.60;99.90;;;;;;5279188;28;20032;-78
2022/04/17 08:40:54;;;;;;;0.70;0.70;;;11.20;99.90;;;;;;5259366;28;20034;-77
2022/04/17 08:43:26;;;;;;;0.80;0.80;;;11.20;99.90;;;;;;5232103;28;20028;-78
2022/04/17 08:45:59;;;;;;;0.80;0.80;;;11.30;99.90;;;;;;5262100;28;20066;-77
2022/04/17 08:48:34;;;;;;;0.80;0.80;;;11.50;99.90;;;;;;5265360;28;20038;-78
2022/04/17 08:51:09;;;;;;;0.80;0.80;;;11.60;99.90;;;;;;5266279;28;20036;-78
2022/04/17 08:53:44;;;;;;;0.80;0.80;;;11.70;99.90;;;;;;5265049;28;20038;-77
2022/04/17 08:56:22;;;;;;;0.73;0.73;;;10.30;99.90;;;;;;5269377;28;20546;-77
2022/04/17 08:58:54;;;;;;;0.70;0.70;;;10.10;99.90;;;;;;5249559;28;20020;-78
2022/04/17 09:01:26;;;;;;;0.82;0.82;;;9.90;99.90;;;;;;5262531;28;20012;-79
2022/04/17 09:04:02;;;;;;;1.02;1.02;;;10.20;99.90;;;;;;5266575;28;20060;-78
2022/04/17 09:06:35;;;;;;;0.57;0.57;;;10.70;99.90;;;;;;5249347;28;20044;-78
2022/04/17 09:09:06;;;;;;;0.80;0.80;;;10.10;99.90;;;;;;5262423;28;20074;-77
2022/04/17 09:11:37;;;;;;;0.68;0.68;;;9.80;99.90;;;;;;5260762;28;20032;-79
2022/04/17 09:14:09;;;;;;;0.52;0.52;;;9.70;99.90;;;;;;5265497;28;20065;-79
2022/04/17 09:16:40;;;;;;;0.70;0.70;;;9.60;99.90;;;;;;5259800;28;20038;-79
2022/04/17 09:19:16;;;;;;;1.38;1.35;;;10.10;99.90;;;;;;5266434;28;20020;-79
2022/04/17 09:21:54;;;;;;;1.30;1.23;;;10.40;99.90;;;;;;5259502;28;20218;-78
2022/04/17 09:24:31;;;;;;;0.90;0.90;;;10.10;99.90;;;;;;5261988;28;20340;-78
2022/04/17 09:27:06;;;;;;;0.90;0.90;;;10.70;99.90;;;;;;5262339;28;20036;-78
2022/04/17 09:29:38;;;;;;;0.70;0.70;;;10.70;99.90;;;;;;5271438;28;20218;-75
2022/04/17 09:32:12;;;;;;;1.10;1.10;;;11.20;99.90;;;;;;5272953;28;20036;-77
2022/04/17 09:34:43;;;;;;;0.90;0.90;;;11.30;99.90;;;;;;5264007;28;20063;-77
2022/04/17 09:37:22;;;;;;;0.70;0.70;;;11.40;99.90;;;;;;5265350;28;20024;-78
2022/04/17 09:40:04;;;;;;;0.70;0.70;;;12.00;99.90;;;;;;5248193;28;20031;-78
2022/04/17 09:42:36;;;;;;;0.55;0.55;;;12.40;99.90;;;;;;5264617;28;20309;-77
2022/04/17 09:45:07;;;;;;;0.63;0.63;;;12.30;99.90;;;;;;5268093;28;20050;-78
2022/04/17 09:47:39;;;;;;;0.70;0.70;;;12.80;99.90;;;;;;5269519;28;20405;-77
2022/04/17 09:50:13;;;;;;;0.73;0.73;;;13.10;99.90;;;;;;5272146;28;20043;-78
2022/04/17 09:52:46;;;;;;;0.80;0.80;;;13.10;99.90;;;;;;5266573;28;20034;-78
2022/04/17 09:55:38;;;;;;;0.77;0.77;;;13.80;99.90;;;;;;5266601;28;20035;-79
2022/04/17 09:58:12;;;;;;;0.70;0.70;;;12.90;99.90;;;;;;5264853;28;20035;-79
2022/04/17 10:00:46;;;;;;;;;;;13.20;99.90;;;;;;5258689;28;20024;-77
2022/04/17 10:03:19;;;;;;;0.60;0.60;;;12.60;99.90;;;;;;5265875;28;19906;-79
2022/04/17 10:05:52;;;;;;;0.57;0.57;;;12.00;99.90;;;;;;5247607;28;20110;-81
2022/04/17 10:08:26;;;;;;;0.70;0.70;;;12.80;99.90;;;;;;5260139;28;20259;-76
2022/04/17 10:10:58;;;;;;;0.70;0.70;;;13.70;99.90;;;;;;5257714;28;20032;-79
2022/04/17 10:13:33;;;;;;;0.95;0.95;;;14.20;99.90;;;;;;5253108;28;20025;-79
2022/04/17 10:16:08;;;;;;;1.10;1.10;;;13.40;99.90;;;;;;5243485;28;20040;-79
2022/04/17 10:18:42;;;;;;;0.80;0.80;;;12.90;99.90;;;;;;5262549;28;20024;-75
2022/04/17 10:21:15;;;;;;;;;;;13.50;99.90;;;;;;5235999;28;20024;-78
2022/04/17 10:23:51;;;;;;;0.90;0.90;;;14.10;99.90;;;;;;5252429;28;19900;-76
2022/04/17 10:26:24;;;;;;;0.80;0.80;;;12.40;99.90;;;;;;5244158;28;20016;-79
2022/04/17 10:28:59;;;;;;;0.65;0.65;;;12.00;99.90;;;;;;5248714;28;20054;-76
2022/04/17 10:31:58;;;;;;;0.77;0.77;;;13.00;99.90;;;;;;5242690;28;20222;-76
2022/04/17 10:35:04;;;;;;;0.70;0.70;;;13.20;99.90;;;;;;5265146;28;20031;-76
2022/04/17 10:38:13;;;;;;;0.77;0.77;;;12.30;99.90;;;;;;5249549;28;20051;-78
2022/04/17 10:40:55;;;;;;;0.80;0.80;;;12.00;99.90;;;;;;5255869;28;20028;-78
2022/04/17 10:43:42;;;;;;;1.20;1.20;;;12.60;99.90;;;;;;5240808;28;20020;-77
2022/04/17 10:46:17;;;;;;;0.82;0.82;;;14.20;99.90;;;;;;5244934;28;20042;-76
2022/04/17 10:49:05;;;;;;;0.80;0.80;;;14.40;99.90;;;;;;5259858;28;20020;-74
2022/04/17 10:51:38;;;;;;;0.52;0.52;;;14.40;99.90;;;;;;5269172;28;20689;-78
2022/04/17 10:54:14;;;;;;;0.60;0.60;;;16.00;99.90;;;;;;5255212;28;20107;-79
2022/04/17 10:57:08;;;;;;;0.43;0.43;;;16.40;99.90;;;;;;5248306;28;20063;-79
2022/04/17 10:59:45;;;;;;;0.70;0.70;;;16.60;99.90;;;;;;5232519;28;20029;-78
2022/04/17 11:02:20;;;;;;;0.60;0.60;;;17.90;99.90;;;;;;5233137;28;20298;-75
2022/04/17 11:04:53;;;;;;;0.70;0.70;;;17.10;99.90;;;;;;5248648;28;20044;-77
2022/04/17 11:07:28;;;;;;;0.60;0.60;;;16.50;99.90;;;;;;5264275;28;20034;-80
2022/04/17 11:10:15;;;;;;;0.45;0.45;;;17.70;99.90;;;;;;5242860;28;20042;-77
2022/04/17 11:12:55;;;;;;;0.60;0.60;;;17.30;99.90;;;;;;5245338;28;20038;-76
2022/04/17 11:15:30;;;;;;;1.08;1.08;;;15.80;99.90;;;;;;5246009;28;20040;-76
2022/04/17 11:18:05;;;;;;;0.60;0.60;;;15.40;99.90;;;;;;5246585;28;20593;-75
2022/04/17 11:20:40;;;;;;;0.98;0.98;;;16.60;99.90;;;;;;5238070;28;20036;-79
2022/04/17 11:23:32;;;;;;;0.50;0.50;;;15.30;99.90;;;;;;5256878;28;20022;-77
2022/04/17 11:26:03;;;;;;;0.60;0.60;;;14.90;99.90;;;;;;5246157;28;20042;-77
2022/04/17 11:28:36;;;;;;;0.50;0.50;;;15.40;99.90;;;;;;5232138;28;20027;-76
2022/04/17 11:31:07;;;;;;;0.55;0.55;;;16.50;99.10;;;;;;5233242;28;20031;-76
2022/04/17 11:33:39;;;;;;;0.65;0.65;;;16.00;99.30;;;;;;5255566;28;20027;-78
2022/04/17 11:36:13;;;;;;;0.50;0.50;;;14.60;98.50;;;;;;5243627;28;20040;-77
2022/04/17 11:38:45;;;;;;;0.70;0.70;;;15.10;99.30;;;;;;5273681;28;20020;-78
2022/04/17 11:41:26;;;;;;;0.60;0.60;;;15.60;98.00;;;;;;5251727;28;20036;-77
2022/04/17 11:44:02;;;;;;;0.68;0.68;;;17.20;97.40;;;;;;5250602;28;20023;-76
2022/04/17 11:46:42;;;;;;;0.70;0.70;;;15.60;97.10;;;;;;5251056;28;20375;-80
2022/04/17 11:49:14;;;;;;;0.45;0.45;;;14.70;99.10;;;;;;5270603;28;20024;-76
2022/04/17 11:51:45;;;;;;;0.60;0.60;;;15.20;98.30;;;;;;5256930;28;20058;-77
2022/04/17 11:54:35;;;;;;;0.50;0.50;;;16.60;97.20;;;;;;5251347;28;20050;-75
2022/04/17 11:57:07;;;;;;;0.50;0.50;;;18.00;96.90;;;;;;5231528;28;20044;-78
2022/04/17 11:59:56;;;;;;;0.60;0.60;;;18.70;95.80;;;;;;5262925;28;20032;-77
2022/04/17 12:02:28;;;;;;;0.52;0.52;;;19.90;94.20;;;;;;5267367;28;20012;-77
2022/04/17 12:05:16;;;;;;;0.63;0.63;;;18.10;96.30;;;;;;5256702;28;20580;-77
2022/04/17 12:07:56;;;;;;;0.60;0.60;;;18.50;94.60;;;;;;5249879;28;20030;-77
2022/04/17 12:10:29;;;;;;;0.40;0.40;;;16.10;95.80;;;;;;5266724;28;20030;-76
2022/04/17 12:13:15;;;;;;;0.55;0.55;;;16.00;95.90;;;;;;5268829;28;20030;-77
2022/04/17 12:16:16;;;;;;;0.52;0.52;;;14.80;96.30;;;;;;5267225;28;20897;-76
2022/04/17 12:18:54;;;;;;;0.55;0.55;;;17.20;95.70;;;;;;5248501;28;20032;-77
2022/04/17 12:21:29;;;;;;;0.40;0.40;;;16.20;96.90;;;;;;5267559;28;20035;-77
2022/04/17 12:24:03;;;;;;;0.60;0.60;;;15.40;97.50;;;;;;5267204;28;20024;-76
2022/04/17 12:26:34;;;;;;;0.57;0.57;;;15.40;97.30;;;;;;5267429;28;20034;-78
2022/04/17 12:29:06;;;;;;;0.50;0.50;;;15.70;96.60;;;;;;5268361;28;20046;-77
2022/04/17 12:31:41;;;;;;;0.30;0.30;;;16.60;96.90;;;;;;5233278;28;20038;-78
2022/04/17 12:34:19;;;;;;;0.85;0.85;;;18.20;96.50;;;;;;5266949;28;20047;-76
2022/04/17 12:36:50;;;;;;;0.60;0.60;;;16.80;94.90;;;;;;5241223;28;20471;-75
2022/04/17 12:39:36;;;;;;;0.68;0.68;;;16.20;95.40;;;;;;5267449;28;20028;-79
2022/04/17 12:42:16;;;;;;;0.90;0.90;;;18.10;95.50;;;;;;5266920;28;20036;-77
2022/04/17 12:44:50;;;;;;;0.47;0.47;;;17.40;95.40;;;;;;5267716;28;20028;-74
2022/04/17 12:47:21;;;;;;;0.67;0.67;;;17.80;95.30;;;;;;5241628;28;20383;-78
2022/04/17 12:50:02;;;;;;;0.60;0.60;;;16.70;94.70;;;;;;5225176;28;20032;-77
2022/04/17 12:52:41;;;;;;;0.60;0.60;;;15.60;96.80;;;;;;5256320;28;20394;-75
2022/04/17 12:55:14;;;;;;;1.23;1.00;;;16.30;96.10;;;;;;5259408;28;20054;-77
2022/04/17 12:57:58;;;;;;;0.60;0.60;;;16.20;96.60;;;;;;5265156;28;20438;-78
2022/04/17 13:00:30;;;;;;;0.50;0.50;;;15.90;97.00;;;;;;5275241;28;20028;-77
2022/04/17 13:03:16;;;;;;;0.50;0.50;;;16.70;96.50;;;;;;5230629;28;20119;-76
2022/04/17 13:05:58;;;;;;;0.50;0.50;;;16.20;96.00;;;;;;5218316;28;20056;-77
2022/04/17 13:08:32;;;;;;;1.02;1.02;;;16.10;97.20;;;;;;5264599;28;20035;-78
2022/04/17 13:11:21;;;;;;;0.50;0.50;;;17.20;95.70;;;;;;5266753;28;20042;-75
2022/04/17 13:13:53;;;;;;;0.40;0.40;;;18.30;94.70;;;;;;5269715;28;20323;-77
2022/04/17 13:16:24;;;;;;;0.63;0.63;;;19.50;95.40;;;;;;5265110;28;20585;-76
2022/04/17 13:18:56;;;;;;;0.45;0.45;;;18.60;93.90;;;;;;5248669;28;20026;-77
2022/04/17 13:21:27;;;;;;;0.70;0.70;;;18.80;94.60;;;;;;5263735;28;20046;-75
2022/04/17 13:24:00;;;;;;;0.70;0.70;;;18.80;94.00;;;;;;5262198;28;20031;-79
2022/04/17 13:26:31;;;;;;;0.43;0.43;;;18.30;93.80;;;;;;5267517;28;20027;-77
2022/04/17 13:29:06;;;;;;;0.60;0.60;;;19.00;94.40;;;;;;5269245;28;20028;-77
2022/04/17 13:31:41;;;;;;;0.80;0.80;;;18.00;94.60;;;;;;5264727;28;20028;-78
2022/04/17 13:34:17;;;;;;;0.35;0.35;;;18.30;93.70;;;;;;5267143;28;20361;-77
2022/04/17 13:38:10;;;;;;;0.90;0.90;;;18.60;94.00;;;;;;5256934;28;20024;-76
2022/04/17 13:39:45;;;;;;;0.68;0.68;;;17.20;95.20;;;;;;5264520;28;20038;-77
2022/04/17 13:42:19;;;;;;;0.50;0.50;;;17.10;94.00;;;;;;5266842;28;20028;-78
2022/04/17 13:44:50;;;;;;;0.55;0.55;;;16.70;95.80;;;;;;5248109;28;20024;-80
2022/04/17 13:47:22;;;;;;;0.40;0.40;;;16.20;94.80;;;;;;5266492;28;20031;-78